Jackson, WI

2:50 PM CDT on August 23, 2014 (GMT -0500)
Twin Creeks | Change Station
CLOSE
Current Station
Personal Weather Station
Location: Jackson, WI
Elevation: 896 ft
Nearby Weather Stations

Elev 896 ft 43.31 °N, 88.16 °W | Updated 41 seconds ago

Haze
Haze
73.1 °F
Feels Like 71 °F
N
1.0
Wind Variable Wind from SE
Gusts 3.0 mph

Today
High -- | Low -- °F
--% Chance of Precip.
Yesterday
High -- | Low -- °F
Precip. -- in
6:06 AM 7:42 PM
Waning Crescent, 3% visible
Pressure 30.03 in
Visibility 4.0 miles
Clouds Overcast 600 ft
Heat Index 71 °F
Dew Point 70 °F
Humidity 89%
Rainfall 0.00 in
Snow Depth Not available.
UV 2 out of 12
Pollen 7.20 out of 12
Air Quality Not available.
Flu Activity Not available.
METAR KETB 231935Z AUTO 10007KT 4SM HZ OVC006 22/20 A3003 RMK AO2

More Conditions Fewer Conditions

Pressure 30.03 in
Visibility 4.0 miles
Clouds Overcast 600 ft
Heat Index 71 °F
Dew Point 70 °F
Humidity 89%
Rainfall 0.00 in
Snow Depth Not available.
UV 2 out of 12
Pollen 7.20 out of 12
Air Quality Not available.
Flu Activity Not available.
METAR KETB 231935Z AUTO 10007KT 4SM HZ OVC006 22/20 A3003 RMK AO2

More Conditions Fewer Conditions

10-Day Weather Forecast

Almanac

Astronomy

Aug. 23, 2014 Rise Set
Actual Time 6:06 AM CDT 7:42 PM CDT
Civil Twilight 5:36 AM CDT 8:12 PM CDT
Nautical Twilight 5:00 AM CDT 8:49 PM CDT
Astronomical Twilight 4:21 AM CDT 9:28 PM CDT
Moon 4:21 AM CDT 6:27 PM CDT
Length of Visible Light 14h 36m
Length of Day
13h 36m
Tomorrow will be 2m 46s shorter.
Waning Crescent, 3% of the Moon is Illuminated
Today
Waning Crescent
Aug 25
New
Sep 2
First Quarter
Sep 8
Full
Sep 15
Last Quarter

Today's Extremes

State Highs State Lows

Community

WunderPhotos

Upload Photos

1,746,583 photos uploaded!

WunderBlogs® & News

Nearby

Snow Depth

Station Depth Elevation
No new snow has been reported.

Earthquake Activity

City Distance Mag. Time & Date
No recent earthquake activity has been reported nearby.
Minimum magnitude displayed is 2.5.

Coastal Water Temperatures

Place Temperature
No Stations Reporting

Nearby Weather Stations